Time;durP1;ratioP1;P1;durP2;ratioP2;P2;SDS_P1;SDS_P2;PMS_P1;PMS_P2;Temp;Humidity;BMP_temperature;BMP_pressure;BME280_temperature;BME280_humidity;BME280_pressure;Samples;Min_cycle;Max_cycle;Signal;HPM_P1;HPM_P2
2024/03/01 00:00:29;;;;;;;79.53;34.55;;;;;;;8.73;100.00;97476.34;5094599;28;20051;-80
2024/03/01 00:02:55;;;;;;;76.03;34.67;;;;;;;8.78;100.00;97468.09;5111150;28;20494;-81
2024/03/01 00:05:20;;;;;;;79.35;34.33;;;;;;;8.78;100.00;97479.63;5110993;28;20104;-81
2024/03/01 00:07:46;;;;;;;75.57;35.03;;;;;;;8.88;100.00;97471.97;5111167;28;20027;-81
2024/03/01 00:10:12;;;;;;;77.75;35.90;;;;;;;8.89;100.00;97477.19;5094056;28;20035;-81
2024/03/01 00:12:38;;;;;;;69.68;33.28;;;;;;;8.88;100.00;97459.50;5093748;28;20034;-81
2024/03/01 00:15:04;;;;;;;71.85;32.47;;;;;;;8.85;100.00;97453.47;5093945;28;20134;-81
2024/03/01 00:17:29;;;;;;;77.28;34.72;;;;;;;8.83;100.00;97437.53;5112395;28;20023;-81
2024/03/01 00:19:55;;;;;;;75.70;34.53;;;;;;;8.95;100.00;97433.34;5094127;28;20092;-81
2024/03/01 00:22:20;;;;;;;67.03;34.38;;;;;;;8.79;100.00;97409.34;5111004;28;20042;-80
2024/03/01 00:24:46;;;;;;;70.35;33.05;;;;;;;8.76;100.00;97436.19;5094307;28;20589;-80
2024/03/01 00:27:12;;;;;;;73.88;35.55;;;;;;;8.82;100.00;97433.16;5093689;28;20498;-80
2024/03/01 00:29:38;;;;;;;79.47;34.78;;;;;;;8.77;100.00;97437.88;5094769;28;20015;-80
2024/03/01 00:32:04;;;;;;;73.25;33.53;;;;;;;8.76;100.00;97420.19;5094408;28;20116;-82
2024/03/01 00:34:30;;;;;;;73.57;34.63;;;;;;;8.84;100.00;97419.72;5094492;28;20024;-81
2024/03/01 00:36:56;;;;;;;74.53;34.95;;;;;;;8.87;100.00;97415.09;5094600;28;20027;-81
2024/03/01 00:39:21;;;;;;;72.32;35.78;;;;;;;8.86;100.00;97424.03;5094305;28;20027;-80
2024/03/01 00:41:47;;;;;;;75.05;34.35;;;;;;;8.86;100.00;97418.69;5093298;28;20448;-81
2024/03/01 00:44:13;;;;;;;78.43;36.10;;;;;;;8.79;100.00;97390.69;5093871;28;20063;-80
2024/03/01 00:46:38;;;;;;;69.80;32.97;;;;;;;8.76;100.00;97417.53;5093369;28;20016;-80
2024/03/01 00:49:04;;;;;;;68.15;30.25;;;;;;;8.73;100.00;97412.34;5093506;28;20088;-81
2024/03/01 00:51:37;;;;;;;69.55;32.88;;;;;;;8.60;100.00;97400.66;5093515;28;20027;-80
2024/03/01 00:58:42;;;;;;;81.28;33.65;;;;;;;8.58;100.00;97408.72;5055823;28;20476;-82
2024/03/01 01:00:42;;;;;;;66.68;32.00;;;;;;;8.52;100.00;97400.25;5055181;28;20419;-80
2024/03/01 01:03:08;;;;;;;73.75;32.92;;;;;;;8.56;100.00;97383.09;5110056;28;20031;-81
2024/03/01 01:05:55;;;;;;;72.57;33.47;;;;;;;8.70;100.00;97392.03;5110526;28;20066;-81
2024/03/01 01:09:11;;;;;;;76.85;34.30;;;;;;;8.74;100.00;97386.56;5110470;28;20160;-82
2024/03/01 01:15:11;;;;;;;77.57;33.10;;;;;;;8.48;100.00;97345.38;4987098;28;20113;-81
2024/03/01 01:17:37;;;;;;;78.78;34.03;;;;;;;8.67;100.00;97372.72;5013762;28;20109;-80
2024/03/01 01:20:03;;;;;;;71.38;32.83;;;;;;;8.68;100.00;97367.28;5092940;28;20039;-80
2024/03/01 01:22:29;;;;;;;74.80;32.28;;;;;;;8.58;100.00;97343.91;5092892;28;20023;-80
2024/03/01 01:24:54;;;;;;;69.50;32.45;;;;;;;8.63;100.00;97373.81;5093006;28;20041;-80
2024/03/01 01:27:20;;;;;;;72.90;32.72;;;;;;;8.60;100.00;97379.34;5110299;28;20020;-82
2024/03/01 01:29:46;;;;;;;73.43;31.35;;;;;;;8.54;100.00;97351.22;5093342;28;20055;-81
2024/03/01 01:32:11;;;;;;;67.68;30.20;;;;;;;8.51;100.00;97342.53;5092133;28;20035;-81
2024/03/01 01:34:37;;;;;;;66.07;29.85;;;;;;;8.57;100.00;97344.84;5109853;28;20515;-81
2024/03/01 01:37:04;;;;;;;70.57;30.88;;;;;;;8.52;100.00;97326.44;5109755;28;20399;-81
2024/03/01 01:39:30;;;;;;;67.53;29.23;;;;;;;8.39;100.00;97321.91;5092914;28;20092;-81
2024/03/01 01:41:56;;;;;;;75.53;31.80;;;;;;;8.44;100.00;97336.69;5109669;28;20039;-79
2024/03/01 01:44:22;;;;;;;69.28;31.75;;;;;;;8.37;100.00;97315.78;5092535;28;20137;-80
2024/03/01 01:46:49;;;;;;;71.70;33.45;;;;;;;8.46;100.00;97339.28;5092601;28;20164;-81
2024/03/01 01:49:16;;;;;;;74.82;31.85;;;;;;;8.47;100.00;97340.97;5092479;28;20469;-81
2024/03/01 01:51:42;;;;;;;76.65;32.42;;;;;;;8.48;100.00;97326.72;5092464;28;20058;-80
2024/03/01 01:54:09;;;;;;;75.70;31.48;;;;;;;8.49;100.00;97345.28;5095455;28;20028;-81
2024/03/01 01:56:36;;;;;;;72.45;30.75;;;;;;;8.51;100.00;97340.75;5113878;28;20493;-81
2024/03/01 01:59:02;;;;;;;69.93;32.33;;;;;;;8.47;100.00;97309.00;5113662;28;20027;-80
2024/03/01 02:01:28;;;;;;;69.25;33.40;;;;;;;8.58;100.00;97312.75;5096705;28;20027;-81
2024/03/01 02:03:55;;;;;;;75.75;32.67;;;;;;;8.64;100.00;97316.91;5096439;28;20028;-81
2024/03/01 02:06:20;;;;;;;74.63;33.50;;;;;;;8.65;100.00;97314.13;5113553;28;20467;-80
2024/03/01 02:08:46;;;;;;;79.80;33.22;;;;;;;8.64;100.00;97324.91;5096675;28;20096;-81
2024/03/01 02:11:12;;;;;;;69.68;31.35;;;;;;;8.73;100.00;97326.16;5096154;28;20506;-81
2024/03/01 02:13:37;;;;;;;75.95;32.67;;;;;;;8.72;100.00;97319.97;5096449;28;20052;-81
2024/03/01 02:16:03;;;;;;;74.35;34.05;;;;;;;8.79;100.00;97326.69;5096082;28;20028;-80
2024/03/01 02:18:29;;;;;;;75.32;34.47;;;;;;;8.79;100.00;97315.16;5096107;28;20027;-80
2024/03/01 02:20:55;;;;;;;74.68;33.20;;;;;;;8.81;100.00;97311.44;5113032;28;20395;-80
2024/03/01 02:23:23;;;;;;;71.85;31.13;;;;;;;8.72;100.00;97319.97;5114363;28;20033;-80
2024/03/01 02:25:49;;;;;;;68.50;30.88;;;;;;;8.59;100.00;97309.16;5096121;28;20390;-80
2024/03/01 02:28:14;;;;;;;62.42;30.80;;;;;;;8.43;100.00;97318.13;5113177;28;20035;-80
2024/03/01 02:30:40;;;;;;;66.80;31.48;;;;;;;8.44;100.00;97330.50;5096212;28;20107;-81
2024/03/01 02:33:05;;;;;;;65.88;31.25;;;;;;;8.45;100.00;97326.91;5096190;28;20110;-80
2024/03/01 02:35:31;;;;;;;65.53;31.23;;;;;;;8.45;100.00;97316.25;5112868;28;20024;-81
2024/03/01 02:37:57;;;;;;;73.72;32.90;;;;;;;8.42;100.00;97303.09;5113150;28;20034;-81
2024/03/01 02:40:22;;;;;;;67.93;32.33;;;;;;;8.37;100.00;97321.13;5095990;28;20118;-80
2024/03/01 02:42:48;;;;;;;68.57;31.38;;;;;;;8.43;100.00;97318.97;5096089;28;20027;-82
2024/03/01 02:45:14;;;;;;;60.25;30.15;;;;;;;8.41;100.00;97349.31;5112447;28;20040;-81
2024/03/01 02:47:40;;;;;;;71.97;31.42;;;;;;;8.34;100.00;97340.81;5113175;28;20031;-81
2024/03/01 02:50:09;;;;;;;66.63;30.75;;;;;;;8.32;100.00;97329.41;5095494;28;20162;-81
2024/03/01 02:52:35;;;;;;;73.07;32.97;;;;;;;8.36;100.00;97322.09;5096032;28;20583;-81
2024/03/01 02:55:04;;;;;;;93.70;42.22;;;;;;;8.38;100.00;97338.84;5112575;28;20078;-82
2024/03/01 02:57:29;;;;;;;76.75;35.05;;;;;;;8.48;100.00;97338.25;5095600;28;20422;-82
2024/03/01 02:59:57;;;;;;;63.35;31.27;;;;;;;8.37;100.00;97329.97;5095486;28;20024;-81
2024/03/01 03:02:22;;;;;;;68.68;31.83;;;;;;;8.43;100.00;97337.63;5095898;28;20116;-82
2024/03/01 03:04:48;;;;;;;68.28;32.92;;;;;;;8.42;100.00;97335.94;5094568;28;20066;-82
2024/03/01 03:07:15;;;;;;;71.85;32.08;;;;;;;8.36;100.00;97319.44;5092439;28;20032;-81
2024/03/01 03:09:44;;;;;;;83.18;36.55;;;;;;;8.37;100.00;97307.81;5095992;28;20038;-82
2024/03/01 03:12:13;;;;;;;70.97;33.97;;;;;;;8.38;100.00;97315.72;5091338;28;20019;-83
2024/03/01 03:14:38;;;;;;;78.82;33.53;;;;;;;8.33;100.00;97319.59;5095242;28;20100;-82
2024/03/01 03:17:05;;;;;;;74.53;31.88;;;;;;;8.36;100.00;97324.75;5095209;28;20520;-82
2024/03/01 03:19:30;;;;;;;81.28;36.28;;;;;;;8.37;100.00;97318.47;5112045;28;20059;-82
2024/03/01 03:21:56;;;;;;;70.13;29.73;;;;;;;8.38;100.00;97301.53;5095068;28;20066;-81
2024/03/01 03:24:22;;;;;;;69.85;31.73;;;;;;;8.37;100.00;97286.47;5095321;28;20031;-81
2024/03/01 03:26:47;;;;;;;68.15;31.65;;;;;;;8.32;100.00;97293.88;5094857;28;20031;-81
2024/03/01 03:29:13;;;;;;;72.88;32.55;;;;;;;8.23;100.00;97310.38;5094822;28;20123;-81
2024/03/01 03:31:41;;;;;;;68.88;30.30;;;;;;;8.32;100.00;97299.22;5094894;28;20084;-82
2024/03/01 03:34:07;;;;;;;69.13;30.25;;;;;;;8.21;100.00;97313.13;5112084;28;20475;-81
2024/03/01 03:36:33;;;;;;;63.75;30.10;;;;;;;8.22;100.00;97303.31;5095196;28;20088;-81
2024/03/01 03:38:58;;;;;;;64.22;29.52;;;;;;;8.13;100.00;97304.69;5095049;28;20024;-82
2024/03/01 03:41:24;;;;;;;62.45;29.58;;;;;;;8.07;100.00;97308.56;5095067;28;20035;-82
2024/03/01 03:43:50;;;;;;;63.30;28.70;;;;;;;8.05;100.00;97318.47;5095007;28;20118;-82
2024/03/01 03:46:16;;;;;;;61.83;29.65;;;;;;;7.93;100.00;97304.97;5095045;28;20130;-81
2024/03/01 03:48:41;;;;;;;69.38;29.67;;;;;;;8.00;100.00;97309.84;5111663;28;20035;-81
2024/03/01 03:51:07;;;;;;;70.72;28.75;;;;;;;8.10;100.00;97307.53;5111673;28;20114;-81
2024/03/01 03:53:32;;;;;;;68.60;32.40;;;;;;;8.04;100.00;97322.06;5094830;28;20056;-81
2024/03/01 03:55:58;;;;;;;60.70;29.50;;;;;;;7.96;100.00;97294.13;5094631;28;20034;-81
2024/03/01 03:58:23;;;;;;;66.97;28.88;;;;;;;7.94;100.00;97299.53;5094326;28;20035;-80
2024/03/01 04:00:49;;;;;;;61.55;29.13;;;;;;;7.82;100.00;97310.00;5094420;28;20172;-81
2024/03/01 04:03:15;;;;;;;64.32;27.23;;;;;;;7.83;100.00;97311.72;5094771;28;20051;-81
2024/03/01 04:05:40;;;;;;;59.00;27.23;;;;;;;7.84;100.00;97314.31;5094608;28;20020;-82
2024/03/01 04:08:06;;;;;;;62.13;28.00;;;;;;;7.88;100.00;97321.16;5092849;28;20036;-73
2024/03/01 04:10:33;;;;;;;61.90;27.77;;;;;;;7.79;100.00;97311.03;5113631;28;20114;-81
2024/03/01 04:13:00;;;;;;;63.55;25.55;;;;;;;7.78;100.00;97298.69;5097628;28;20344;-81
2024/03/01 04:15:26;;;;;;;62.05;27.85;;;;;;;7.88;100.00;97302.53;5111318;28;20104;-80
2024/03/01 04:17:52;;;;;;;56.58;27.02;;;;;;;7.93;100.00;97313.81;5094319;28;20464;-81
2024/03/01 04:20:20;;;;;;;66.15;27.92;;;;;;;7.91;100.00;97315.69;5111044;28;20076;-81
2024/03/01 04:22:45;;;;;;;58.13;27.17;;;;;;;7.79;100.00;97275.56;5094050;28;20123;-81
2024/03/01 04:25:11;;;;;;;60.42;27.15;;;;;;;7.94;100.00;97304.84;5094320;28;20470;-81
2024/03/01 04:27:40;;;;;;;61.53;27.20;;;;;;;7.90;100.00;97308.66;5094808;28;20035;-81
2024/03/01 04:30:09;;;;;;;67.18;28.20;;;;;;;7.88;100.00;97299.88;5094309;28;20034;-82
2024/03/01 04:32:35;;;;;;;61.38;27.38;;;;;;;7.85;100.00;97301.84;5094635;28;20019;-80
2024/03/01 04:35:01;;;;;;;62.47;26.65;;;;;;;7.89;100.00;97314.91;5094491;28;20047;-90
2024/03/01 04:37:26;;;;;;;64.43;27.02;;;;;;;7.91;100.00;97321.00;5111381;28;20020;-82
2024/03/01 04:39:52;;;;;;;65.55;27.85;;;;;;;7.92;100.00;97312.09;5095182;28;20035;-82
2024/03/01 04:42:17;;;;;;;72.07;30.27;;;;;;;7.93;100.00;97305.81;5099633;28;20023;-81
2024/03/01 04:44:43;;;;;;;70.40;31.08;;;;;;;8.02;100.00;97307.97;5096274;28;20031;-84
2024/03/01 04:47:09;;;;;;;70.18;30.33;;;;;;;7.97;100.00;97299.38;5097224;28;20119;-82
2024/03/01 04:49:35;;;;;;;63.45;29.55;;;;;;;8.03;100.00;97296.34;5091387;28;20043;-81
2024/03/01 04:52:01;;;;;;;59.85;27.00;;;;;;;7.92;100.00;97306.75;5094139;28;20046;-82
2024/03/01 04:54:27;;;;;;;61.08;28.20;;;;;;;7.98;100.00;97317.06;5094085;28;20433;-82
2024/03/01 04:56:53;;;;;;;58.13;26.48;;;;;;;8.00;100.00;97312.50;5110421;28;20088;-82
2024/03/01 04:59:18;;;;;;;63.38;27.70;;;;;;;8.03;100.00;97315.00;5091738;28;20036;-82
2024/03/01 05:01:44;;;;;;;70.93;29.67;;;;;;;8.06;100.00;97309.50;5093030;28;20055;-82
2024/03/01 05:04:09;;;;;;;65.65;30.17;;;;;;;8.01;100.00;97316.03;5093417;28;20088;-82
2024/03/01 05:06:38;;;;;;;72.93;29.15;;;;;;;8.00;100.00;97316.97;5093532;28;20030;-82
2024/03/01 05:09:07;;;;;;;65.53;27.90;;;;;;;8.05;100.00;97307.81;5089342;28;20019;-82
2024/03/01 05:11:35;;;;;;;53.38;27.55;;;;;;;8.19;100.00;97325.66;5094061;28;20031;-82
2024/03/01 05:14:01;;;;;;;55.35;27.02;;;;;;;8.21;100.00;97329.13;5093684;28;20039;-82
2024/03/01 05:16:27;;;;;;;56.50;25.50;;;;;;;8.25;100.00;97314.66;5111273;28;20023;-81
2024/03/01 05:18:52;;;;;;;59.53;27.25;;;;;;;8.07;100.00;97321.03;5110255;28;20483;-80
2024/03/01 05:21:22;;;;;;;60.60;26.50;;;;;;;8.08;100.00;97349.38;5093098;28;20114;-81
2024/03/01 05:23:49;;;;;;;71.43;29.35;;;;;;;8.10;100.00;97339.50;5093446;28;20528;-82
2024/03/01 05:26:15;;;;;;;62.60;28.65;;;;;;;8.12;100.00;97340.28;5109720;28;20055;-81
2024/03/01 05:28:41;;;;;;;61.80;29.30;;;;;;;8.21;100.00;97345.09;5092133;28;20016;-74
2024/03/01 05:31:07;;;;;;;52.13;26.35;;;;;;;8.27;100.00;97327.91;5109710;28;20491;-81
2024/03/01 05:33:34;;;;;;;55.00;25.05;;;;;;;8.09;100.00;97341.28;5091872;28;20028;-82
2024/03/01 05:36:01;;;;;;;63.28;28.95;;;;;;;8.16;100.00;97337.34;5109566;28;20031;-80
2024/03/01 05:38:26;;;;;;;53.95;24.85;;;;;;;8.18;100.00;97343.44;5092583;28;20474;-81
2024/03/01 05:40:52;;;;;;;53.63;25.75;;;;;;;8.11;100.00;97336.75;5093142;28;20043;-81
2024/03/01 05:43:21;;;;;;;55.10;25.42;;;;;;;8.28;100.00;97333.16;5093228;28;20525;-81
2024/03/01 05:45:47;;;;;;;50.88;25.25;;;;;;;8.33;100.00;97338.25;5092679;28;20428;-81
2024/03/01 05:48:13;;;;;;;54.03;25.73;;;;;;;8.40;100.00;97336.97;5110667;28;20108;-81
2024/03/01 05:50:39;;;;;;;48.05;23.60;;;;;;;8.37;100.00;97327.31;5092892;28;20027;-79
2024/03/01 05:53:04;;;;;;;73.45;36.35;;;;;;;8.30;100.00;97333.97;5110622;28;20027;-80
2024/03/01 05:55:30;;;;;;;56.95;25.65;;;;;;;8.35;100.00;97337.22;5092635;28;20032;-79
2024/03/01 05:57:56;;;;;;;55.42;25.20;;;;;;;8.27;100.00;97359.88;5110325;28;20035;-81
2024/03/01 06:00:25;;;;;;;57.95;26.70;;;;;;;8.29;100.00;97342.88;5093075;28;20047;-80
2024/03/01 06:02:51;;;;;;;61.60;28.42;;;;;;;8.23;100.00;97323.69;5093257;28;20505;-80
2024/03/01 06:05:17;;;;;;;52.40;23.27;;;;;;;8.26;100.00;97343.03;5094176;28;20020;-80
2024/03/01 06:07:43;;;;;;;51.42;23.20;;;;;;;8.24;100.00;97326.28;5093979;28;20104;-81
2024/03/01 06:10:09;;;;;;;52.15;22.92;;;;;;;8.31;100.00;97322.34;5110031;28;20097;-81
2024/03/01 06:12:35;;;;;;;52.25;23.88;;;;;;;8.37;100.00;97350.44;5092805;28;20031;-81
2024/03/01 06:15:02;;;;;;;52.08;23.52;;;;;;;8.37;100.00;97316.66;5080177;28;20044;-80
2024/03/01 06:17:27;;;;;;;48.55;21.95;;;;;;;8.35;100.00;97320.38;5075586;28;20028;-81
2024/03/01 06:19:53;;;;;;;41.83;21.92;;;;;;;8.45;100.00;97329.56;5085180;28;20090;-81
2024/03/01 06:22:19;;;;;;;44.90;23.70;;;;;;;8.52;100.00;97352.25;5071327;28;20034;-81
2024/03/01 06:24:45;;;;;;;86.15;43.28;;;;;;;8.36;100.00;97346.06;5075288;28;20058;-80
2024/03/01 06:27:11;;;;;;;131.73;67.65;;;;;;;8.28;100.00;97345.63;5075221;28;20529;-80
2024/03/01 06:29:38;;;;;;;68.07;28.38;;;;;;;8.30;100.00;97336.63;5094590;28;20027;-81
2024/03/01 06:32:04;;;;;;;49.72;25.55;;;;;;;8.31;100.00;97340.13;5094853;28;20410;-80
2024/03/01 06:34:29;;;;;;;58.95;28.77;;;;;;;8.50;100.00;97362.13;5092078;28;20024;-81
2024/03/01 06:36:55;;;;;;;53.05;26.23;;;;;;;8.42;100.00;97349.25;5092923;28;20054;-81
2024/03/01 06:39:21;;;;;;;52.55;25.75;;;;;;;8.43;100.00;97368.78;5092097;28;20046;-81
2024/03/01 06:41:46;;;;;;;52.35;24.25;;;;;;;8.43;100.00;97353.63;5078472;28;20027;-81
2024/03/01 06:44:20;;;;;;;52.65;25.58;;;;;;;8.46;100.00;97341.94;5078927;28;20046;-83
2024/03/01 06:46:46;;;;;;;65.07;27.30;;;;;;;8.53;100.00;97335.31;5096626;28;20038;-80
2024/03/01 06:49:11;;;;;;;61.58;29.10;;;;;;;8.53;100.00;97332.63;5078764;28;20036;-80
2024/03/01 06:51:37;;;;;;;65.57;29.60;;;;;;;8.73;100.00;97343.03;5095675;28;20027;-80
2024/03/01 06:54:03;;;;;;;60.28;28.95;;;;;;;8.84;100.00;97329.06;5078472;28;20042;-80
2024/03/01 06:56:28;;;;;;;57.78;27.65;;;;;;;8.85;100.00;97331.66;5078600;28;20554;-81
2024/03/01 06:58:54;;;;;;;53.47;26.77;;;;;;;8.85;100.00;97341.44;5078163;28;20039;-81
2024/03/01 07:01:19;;;;;;;54.92;27.50;;;;;;;8.97;100.00;97352.28;5078342;28;20114;-80
2024/03/01 07:03:48;;;;;;;58.85;26.25;;;;;;;8.96;100.00;97305.19;5078445;28;20082;-82
2024/03/01 07:06:14;;;;;;;54.35;25.90;;;;;;;9.12;100.00;97326.47;5113607;28;20384;-80
2024/03/01 07:08:39;;;;;;;58.00;26.42;;;;;;;9.08;100.00;97316.94;5095251;28;20088;-81
2024/03/01 07:11:05;;;;;;;54.60;27.77;;;;;;;9.15;100.00;97329.84;5078273;28;20084;-80
2024/03/01 07:13:31;;;;;;;59.45;27.92;;;;;;;9.14;100.00;97328.09;5078184;28;20406;-80
2024/03/01 07:15:56;;;;;;;53.83;24.88;;;;;;;9.01;100.00;97315.59;5065755;28;20031;-81
2024/03/01 07:18:22;;;;;;;49.05;25.05;;;;;;;8.99;100.00;97328.16;5078189;28;20200;-80
2024/03/01 07:20:47;;;;;;;49.28;24.80;;;;;;;9.10;100.00;97315.91;5057818;28;20029;-80
2024/03/01 07:23:13;;;;;;;53.35;24.92;;;;;;;9.26;100.00;97295.34;5058602;28;20024;-81
2024/03/01 07:25:39;;;;;;;54.63;26.92;;;;;;;9.20;100.00;97311.72;5077198;28;20061;-81
2024/03/01 07:28:05;;;;;;;66.97;32.85;;;;;;;9.25;100.00;97324.81;5077944;28;20031;-81
2024/03/01 07:30:30;;;;;;;75.78;38.95;;;;;;;9.23;100.00;97327.56;5077750;28;20529;-81
2024/03/01 07:32:56;;;;;;;47.22;23.73;;;;;;;9.27;100.00;97333.56;5075892;28;20034;-80
2024/03/01 07:35:22;;;;;;;50.42;22.55;;;;;;;9.18;100.00;97313.63;5087002;28;20639;-80
2024/03/01 07:37:48;;;;;;;56.03;25.00;;;;;;;9.33;100.00;97324.31;5071356;28;20039;-81
2024/03/01 07:40:13;;;;;;;120.05;41.55;;;;;;;9.48;100.00;97321.59;5090357;28;20020;-82
2024/03/01 07:42:39;;;;;;;134.15;53.60;;;;;;;9.51;100.00;97315.19;5057727;28;20028;-82
2024/03/01 07:45:05;;;;;;;87.05;37.70;;;;;;;9.45;100.00;97304.88;5073238;28;20019;-82
2024/03/01 07:47:32;;;;;;;64.95;32.40;;;;;;;9.39;100.00;97290.13;5066740;28;20169;-81
2024/03/01 07:49:58;;;;;;;58.45;27.98;;;;;;;9.52;100.00;97299.09;5057674;28;20323;-82
2024/03/01 07:52:29;;;;;;;51.83;25.63;;;;;;;9.61;100.00;97313.69;5070597;28;20042;-82
2024/03/01 07:54:55;;;;;;;49.50;24.88;;;;;;;9.60;100.00;97314.63;5082057;28;20035;-80
2024/03/01 07:57:21;;;;;;;46.63;23.17;;;;;;;9.71;100.00;97317.50;5060399;28;20461;-85
2024/03/01 07:59:47;;;;;;;46.38;23.48;;;;;;;9.67;100.00;97310.63;5057937;28;20050;-81
2024/03/01 08:02:13;;;;;;;48.53;23.88;;;;;;;9.65;100.00;97301.88;5073270;28;20023;-83
2024/03/01 08:04:39;;;;;;;53.17;24.05;;;;;;;9.69;100.00;97298.06;5077046;28;20442;-82
2024/03/01 08:07:06;;;;;;;48.85;22.70;;;;;;;9.81;100.00;97326.66;5081781;28;20102;-83
2024/03/01 08:09:36;;;;;;;45.35;22.35;;;;;;;9.62;100.00;97308.25;5071228;28;20086;-83
2024/03/01 08:12:08;;;;;;;48.80;24.75;;;;;;;9.70;100.00;97305.09;5063860;28;20038;-84
2024/03/01 08:14:34;;;;;;;51.10;24.95;;;;;;;9.81;100.00;97321.34;5088986;28;20063;-83
2024/03/01 08:17:01;;;;;;;47.30;23.13;;;;;;;9.93;100.00;97307.19;5074330;28;20059;-83
2024/03/01 08:19:37;;;;;;;49.15;24.77;;;;;;;9.96;100.00;97316.84;5079095;28;20097;-83
2024/03/01 08:22:10;;;;;;;123.25;66.07;;;;;;;10.01;100.00;97309.38;5071079;28;20103;-83
2024/03/01 08:24:36;;;;;;;48.15;24.15;;;;;;;9.94;100.00;97302.69;5057223;28;20543;-83
2024/03/01 08:27:05;;;;;;;46.00;22.95;;;;;;;9.99;100.00;97303.28;5062885;28;20031;-83
2024/03/01 08:29:34;;;;;;;51.95;25.80;;;;;;;10.08;100.00;97295.53;5085197;28;20032;-82
2024/03/01 08:32:01;;;;;;;44.83;21.27;;;;;;;10.03;100.00;97310.97;5071519;28;20415;-82
2024/03/01 08:34:50;;;;;;;48.33;22.30;;;;;;;10.06;100.00;97294.75;5056743;28;20038;-82
2024/03/01 08:37:24;;;;;;;44.17;22.13;;;;;;;9.97;100.00;97289.13;5057137;28;20032;-83
2024/03/01 08:39:50;;;;;;;43.35;21.25;;;;;;;10.12;100.00;97298.88;5056851;28;20123;-83
2024/03/01 08:42:16;;;;;;;48.05;23.35;;;;;;;10.05;100.00;97292.19;5064916;28;20475;-83
2024/03/01 08:44:59;;;;;;;43.40;21.95;;;;;;;10.30;100.00;97300.41;5066737;28;20027;-82
2024/03/01 08:47:31;;;;;;;43.58;22.33;;;;;;;10.36;100.00;97288.44;5064743;28;20036;-83
2024/03/01 08:50:03;;;;;;;46.58;23.48;;;;;;;10.63;100.00;97308.88;5069828;28;20052;-83
2024/03/01 08:52:36;;;;;;;39.95;21.52;;;;;;;10.39;100.00;97298.94;5072877;28;20032;-83
2024/03/01 08:55:38;;;;;;;40.70;20.63;;;;;;;10.36;100.00;97293.78;5064954;28;20478;-83
2024/03/01 08:58:04;;;;;;;43.42;21.10;;;;;;;10.15;100.00;97290.69;5049782;28;20118;-82
2024/03/01 09:00:38;;;;;;;41.25;22.10;;;;;;;10.07;100.00;97293.81;5063742;28;20130;-83
2024/03/01 09:03:10;;;;;;;43.08;23.15;;;;;;;10.10;100.00;97301.63;5069691;28;20055;-83
2024/03/01 09:05:40;;;;;;;47.15;22.30;;;;;;;10.16;100.00;97292.38;5067973;28;20111;-83
2024/03/01 09:08:08;;;;;;;45.35;22.50;;;;;;;10.13;100.00;97288.09;5063437;28;20047;-85
2024/03/01 09:10:35;;;;;;;46.47;23.55;;;;;;;10.20;100.00;97296.59;5056229;28;20041;-83
2024/03/01 09:13:03;;;;;;;52.00;23.20;;;;;;;10.31;100.00;97294.94;5056207;28;20109;-83
2024/03/01 09:15:36;;;;;;;71.30;37.45;;;;;;;10.40;100.00;97306.84;5051890;28;20091;-83
2024/03/01 09:18:02;;;;;;;51.05;23.77;;;;;;;10.37;100.00;97304.38;5072738;28;20415;-82
2024/03/01 09:20:34;;;;;;;39.88;21.73;;;;;;;10.17;100.00;97300.31;5047903;28;20093;-84
2024/03/01 09:23:00;;;;;;;;;;;;;;;10.27;100.00;97311.28;5056539;28;20027;-84
2024/03/01 09:25:41;;;;;;;49.78;23.65;;;;;;;10.11;100.00;97306.03;5056129;28;19990;-83
2024/03/01 09:28:08;;;;;;;48.67;24.05;;;;;;;10.09;100.00;97291.06;5087385;28;20098;-83
2024/03/01 09:30:34;;;;;;;52.47;25.23;;;;;;;10.07;100.00;97288.47;5073061;28;20039;-83
2024/03/01 09:33:00;;;;;;;55.47;26.38;;;;;;;10.21;100.00;97296.47;5072808;28;20115;-82
2024/03/01 09:35:26;;;;;;;47.40;24.42;;;;;;;10.28;100.00;97286.25;5072621;28;20024;-81
2024/03/01 09:37:58;;;;;;;50.03;23.75;;;;;;;10.29;100.00;97302.19;5055531;28;20472;-82
2024/03/01 09:40:42;;;;;;;54.80;25.55;;;;;;;10.41;100.00;97297.00;5055700;28;20032;-82
2024/03/01 09:43:36;;;;;;;48.55;25.15;;;;;;;10.10;100.00;97293.63;5072523;28;20032;-82
2024/03/01 09:46:20;;;;;;;49.75;23.13;;;;;;;10.26;100.00;97289.03;5090554;28;20028;-73
2024/03/01 09:49:20;;;;;;;62.03;24.60;;;;;;;10.39;100.00;97290.91;5090273;28;20117;-72
2024/03/01 09:52:16;;;;;;;50.85;25.25;;;;;;;10.29;100.00;97275.47;4988312;28;20047;-79
2024/03/01 09:55:20;;;;;;;52.92;25.00;;;;;;;10.32;100.00;97290.44;5072002;28;20480;-80
2024/03/01 09:58:07;;;;;;;48.53;25.35;;;;;;;10.51;100.00;97260.69;5087293;28;20055;-72
2024/03/01 10:00:36;;;;;;;50.78;24.67;;;;;;;10.50;100.00;97277.69;5073266;28;20032;-77
2024/03/01 10:03:28;;;;;;;49.15;24.88;;;;;;;10.67;100.00;97282.78;5066313;28;20035;-73
2024/03/01 10:06:02;;;;;;;48.22;25.88;;;;;;;10.76;100.00;97269.66;5054030;28;20154;-73
2024/03/01 10:08:40;;;;;;;50.97;26.15;;;;;;;10.84;100.00;97263.78;5053047;28;20073;-78
2024/03/01 10:11:37;;;;;;;49.13;24.92;;;;;;;11.14;100.00;97261.69;5088610;28;20033;-73
2024/03/01 10:14:09;;;;;;;47.25;24.63;;;;;;;11.30;100.00;97267.69;5070567;28;20418;-73
2024/03/01 10:16:46;;;;;;;46.92;25.20;;;;;;;11.41;100.00;97262.44;5092138;28;20118;-76
2024/03/01 10:19:20;;;;;;;41.80;20.48;;;;;;;11.67;100.00;97257.06;5074251;28;20431;-84
2024/03/01 10:22:13;;;;;;;43.40;21.05;;;;;;;11.84;100.00;97251.44;5054317;28;20039;-72
2024/03/01 10:25:00;;;;;;;42.78;21.00;;;;;;;11.91;100.00;97247.31;5070809;28;20098;-83
2024/03/01 10:27:36;;;;;;;42.20;21.65;;;;;;;11.83;100.00;97239.84;5113849;28;20478;-84
2024/03/01 10:30:31;;;;;;;45.58;22.65;;;;;;;11.75;100.00;97242.19;5078620;28;20054;-84
2024/03/01 10:33:13;;;;;;;42.03;21.83;;;;;;;11.83;100.00;97237.16;5073228;28;20069;-83
2024/03/01 10:35:47;;;;;;;49.28;24.02;;;;;;;11.89;100.00;97238.53;5078854;28;20465;-84
2024/03/01 10:38:25;;;;;;;42.30;22.55;;;;;;;11.81;100.00;97231.03;5077793;28;20583;-83
2024/03/01 10:41:30;;;;;;;44.72;23.85;;;;;;;11.77;100.00;97234.06;5094371;28;20483;-73
2024/03/01 10:44:15;;;;;;;45.45;21.45;;;;;;;12.01;100.00;97224.25;5076153;28;20107;-74
2024/03/01 10:47:13;;;;;;;50.05;25.48;;;;;;;11.76;100.00;97197.50;5111455;28;20027;-74
2024/03/01 10:49:46;;;;;;;52.00;27.02;;;;;;;11.89;100.00;97227.81;5059256;28;20145;-73
2024/03/01 10:52:16;;;;;;;61.55;29.13;;;;;;;12.20;100.00;97205.00;5076583;28;20036;-74
2024/03/01 10:54:49;;;;;;;49.22;26.02;;;;;;;12.31;100.00;97213.09;5091248;28;20418;-73
2024/03/01 10:57:16;;;;;;;45.35;23.90;;;;;;;12.66;100.00;97202.41;5092954;28;20024;-74
2024/03/01 11:00:06;;;;;;;51.58;24.13;;;;;;;12.69;100.00;97186.94;5092571;28;20028;-73
2024/03/01 11:02:48;;;;;;;46.83;25.02;;;;;;;12.86;100.00;97194.53;5075879;28;20041;-74
2024/03/01 11:05:35;;;;;;;46.97;23.17;;;;;;;12.29;100.00;97202.50;5076216;28;20032;-73
2024/03/01 11:08:48;;;;;;;53.60;25.88;;;;;;;12.39;100.00;97187.44;5076030;28;20169;-73
2024/03/01 11:11:20;;;;;;;;;;;;;;;12.07;100.00;97191.63;5048719;28;20506;-73
2024/03/01 11:13:48;;;;;;;47.00;22.92;;;;;;;12.26;100.00;97178.59;5079896;27;19969;-73
2024/03/01 11:16:16;;;;;;;39.42;20.65;;;;;;;12.58;100.00;97172.63;5113200;27;20406;-72
2024/03/01 11:18:45;;;;;;;40.97;20.35;;;;;;;12.70;100.00;97161.81;5112998;27;20490;-72
2024/03/01 11:21:14;;;;;;;37.35;19.73;;;;;;;12.93;100.00;97151.97;5112971;27;20553;-72
2024/03/01 11:24:03;;;;;;;43.22;20.20;;;;;;;12.48;100.00;97148.31;5112945;27;20462;-72
2024/03/01 11:26:46;;;;;;;44.65;23.10;;;;;;;12.43;100.00;97147.78;5129743;27;20019;-72
2024/03/01 11:29:27;;;;;;;40.78;20.83;;;;;;;12.50;100.00;97144.53;5112568;27;20117;-72
2024/03/01 11:31:54;;;;;;;40.88;19.50;;;;;;;12.78;100.00;97155.84;5130781;27;20031;-74